Time;durP1;ratioP1;P1;durP2;ratioP2;P2;SDS_P1;SDS_P2;PMS_P1;PMS_P2;Temp;Humidity;BMP_temperature;BMP_pressure;BME280_temperature;BME280_humidity;BME280_pressure;Samples;Min_cycle;Max_cycle;Signal;HPM_P1;HPM_P2
2020/12/19 00:01:56;;;;;;;10.90;6.97;;;4.30;99.90;;;;;;4998089;28;20627;-46
2020/12/19 00:04:22;;;;;;;10.90;6.77;;;4.30;99.90;;;;;;5000577;28;20193;-45
2020/12/19 00:06:47;;;;;;;12.87;7.70;;;4.30;99.90;;;;;;4998883;28;20192;-42
2020/12/19 00:09:13;;;;;;;11.70;7.17;;;4.30;99.90;;;;;;4992285;28;20533;-43
2020/12/19 00:11:42;;;;;;;11.80;7.77;;;4.30;99.90;;;;;;4986153;28;20184;-44
2020/12/19 00:14:07;;;;;;;8.00;7.20;;;4.30;99.90;;;;;;4980335;28;20251;-45
2020/12/19 00:16:33;;;;;;;9.97;7.03;;;4.30;99.90;;;;;;4991689;28;20185;-47
2020/12/19 00:18:58;;;;;;;8.17;6.50;;;4.40;99.90;;;;;;5003625;28;20252;-44
2020/12/19 00:21:32;;;;;;;10.57;6.93;;;4.30;99.90;;;;;;4995902;28;20680;-49
2020/12/19 00:23:57;;;;;;;11.13;7.13;;;4.30;99.90;;;;;;4984274;28;20689;-45
2020/12/19 00:26:34;;;;;;;11.73;7.03;;;4.30;99.90;;;;;;4980816;28;20181;-48
2020/12/19 00:28:59;;;;;;;10.57;7.43;;;4.30;99.90;;;;;;4972039;28;20204;-48
2020/12/19 00:31:25;;;;;;;9.10;7.30;;;4.30;99.90;;;;;;4989322;28;20216;-48
2020/12/19 00:33:51;;;;;;;10.17;7.80;;;4.30;99.90;;;;;;5003661;28;20181;-48
2020/12/19 00:36:16;;;;;;;10.73;6.67;;;4.20;99.90;;;;;;5001990;28;20169;-50
2020/12/19 00:38:42;;;;;;;17.13;7.03;;;4.20;99.90;;;;;;4998026;28;20192;-50
2020/12/19 00:41:07;;;;;;;12.93;7.00;;;4.20;99.90;;;;;;5001897;28;20208;-46
2020/12/19 00:43:33;;;;;;;9.03;7.33;;;4.20;99.90;;;;;;4997363;28;20219;-45
2020/12/19 00:45:58;;;;;;;9.07;6.37;;;4.20;99.90;;;;;;4977042;28;20279;-47
2020/12/19 00:48:24;;;;;;;13.30;7.33;;;4.20;99.90;;;;;;4988309;28;20182;-45
2020/12/19 00:50:49;;;;;;;10.57;7.47;;;4.20;99.90;;;;;;4983636;28;20185;-48
2020/12/19 00:53:15;;;;;;;9.83;7.10;;;4.20;99.90;;;;;;4986169;28;20268;-44
2020/12/19 00:55:40;;;;;;;10.43;6.77;;;4.20;99.90;;;;;;5001434;28;20705;-46
2020/12/19 00:58:05;;;;;;;9.80;7.07;;;4.10;99.90;;;;;;5003714;28;20185;-46
2020/12/19 01:00:31;;;;;;;8.30;6.73;;;4.10;99.90;;;;;;4977681;28;21628;-48
2020/12/19 01:02:56;;;;;;;9.50;7.13;;;4.10;99.90;;;;;;4995354;28;20258;-48
2020/12/19 01:05:22;;;;;;;8.83;6.90;;;4.10;99.90;;;;;;5000049;28;20224;-47
2020/12/19 01:07:47;;;;;;;12.63;7.37;;;4.10;99.90;;;;;;5005427;28;20256;-45
2020/12/19 01:10:13;;;;;;;10.53;6.83;;;4.00;99.90;;;;;;5001610;28;20203;-47
2020/12/19 01:12:38;;;;;;;9.97;7.07;;;4.00;99.90;;;;;;5004713;28;20238;-45
2020/12/19 01:15:06;;;;;;;7.83;6.23;;;4.00;99.90;;;;;;4999152;28;20201;-47
2020/12/19 01:17:31;;;;;;;11.63;7.00;;;4.00;99.90;;;;;;4980913;28;20181;-45
2020/12/19 01:19:59;;;;;;;8.47;6.87;;;4.00;99.90;;;;;;5001869;28;20188;-44
2020/12/19 01:22:25;;;;;;;13.70;8.30;;;4.00;99.90;;;;;;5003067;28;20252;-50
2020/12/19 01:24:50;;;;;;;11.87;7.80;;;4.00;99.90;;;;;;5002715;28;20248;-45
2020/12/19 01:27:16;;;;;;;11.23;7.67;;;4.00;99.90;;;;;;5005015;28;20177;-50
2020/12/19 01:29:41;;;;;;;10.60;7.50;;;4.00;99.90;;;;;;5005194;28;20176;-45
2020/12/19 01:32:07;;;;;;;10.13;6.87;;;4.00;99.90;;;;;;4984328;28;20725;-47
2020/12/19 01:34:32;;;;;;;12.27;7.90;;;4.00;99.90;;;;;;4991998;28;20204;-46
2020/12/19 01:36:57;;;;;;;9.37;7.37;;;3.90;99.90;;;;;;4990856;28;20669;-49
2020/12/19 01:39:23;;;;;;;9.30;7.60;;;3.90;99.90;;;;;;4998682;28;20189;-48
2020/12/19 01:41:51;;;;;;;10.03;7.70;;;3.90;99.90;;;;;;5005800;28;20211;-45
2020/12/19 01:44:16;;;;;;;13.47;7.67;;;3.90;99.90;;;;;;4995987;28;20260;-47
2020/12/19 01:46:56;;;;;;;15.93;8.80;;;3.90;99.90;;;;;;4986665;28;20244;-46
2020/12/19 01:49:24;;;;;;;11.93;8.10;;;3.90;99.90;;;;;;4992981;28;20248;-47
2020/12/19 01:51:57;;;;;;;13.50;7.70;;;3.90;99.90;;;;;;5006377;28;20184;-50
2020/12/19 01:54:23;;;;;;;10.53;8.73;;;3.80;99.90;;;;;;4999346;28;20572;-49
2020/12/19 01:56:54;;;;;;;12.63;8.83;;;3.90;99.90;;;;;;5005486;28;20192;-47
2020/12/19 01:59:21;;;;;;;12.53;8.10;;;3.80;99.90;;;;;;5003450;28;20273;-46
2020/12/19 02:01:51;;;;;;;10.53;7.57;;;3.80;99.90;;;;;;5005645;28;20208;-48
2020/12/19 02:04:18;;;;;;;14.00;8.33;;;3.80;99.90;;;;;;4981000;28;20300;-46
2020/12/19 02:06:47;;;;;;;13.50;9.13;;;3.80;99.90;;;;;;4992730;28;20173;-45
2020/12/19 02:09:14;;;;;;;12.97;8.73;;;3.80;99.90;;;;;;4996135;28;20186;-47
2020/12/19 02:11:42;;;;;;;12.90;8.43;;;3.80;99.90;;;;;;4991748;28;20185;-46
2020/12/19 02:14:08;;;;;;;11.53;8.60;;;3.80;99.90;;;;;;5005944;28;20201;-48
2020/12/19 02:16:34;;;;;;;14.97;8.83;;;3.80;99.90;;;;;;5003256;28;20169;-47
2020/12/19 02:19:00;;;;;;;12.07;8.10;;;3.80;99.90;;;;;;4983538;28;20209;-50
2020/12/19 02:21:25;;;;;;;12.53;9.00;;;3.80;99.90;;;;;;4987187;28;20212;-45
2020/12/19 02:23:51;;;;;;;15.23;8.97;;;3.80;99.90;;;;;;4985306;28;20181;-46
2020/12/19 02:26:16;;;;;;;11.83;9.57;;;3.80;99.90;;;;;;4978668;28;20915;-46
2020/12/19 02:28:42;;;;;;;15.30;9.77;;;3.80;99.90;;;;;;5005677;28;20211;-47
2020/12/19 02:31:07;;;;;;;14.60;9.00;;;3.80;99.90;;;;;;5002477;28;20180;-48
2020/12/19 02:33:33;;;;;;;13.13;9.17;;;3.80;99.90;;;;;;4986455;28;23418;-49
2020/12/19 02:35:58;;;;;;;11.17;9.27;;;3.70;99.90;;;;;;4993331;28;20213;-49
2020/12/19 02:38:23;;;;;;;14.07;9.53;;;3.70;99.90;;;;;;4998767;28;20264;-46
2020/12/19 02:40:49;;;;;;;13.90;10.20;;;3.70;99.90;;;;;;4998698;28;20201;-49
2020/12/19 02:43:14;;;;;;;14.50;9.50;;;3.70;99.90;;;;;;4996904;28;20204;-45
2020/12/19 02:45:40;;;;;;;15.83;10.27;;;3.70;99.90;;;;;;5004453;28;20193;-46
2020/12/19 02:48:05;;;;;;;14.77;8.90;;;3.70;99.90;;;;;;4994358;28;20227;-45
2020/12/19 02:50:31;;;;;;;12.53;9.33;;;3.70;99.90;;;;;;4988654;28;20204;-47
2020/12/19 02:52:56;;;;;;;13.53;9.30;;;3.60;99.90;;;;;;4990832;28;20680;-48
2020/12/19 02:55:22;;;;;;;16.37;9.33;;;3.60;99.90;;;;;;4982141;28;20197;-48
2020/12/19 02:57:47;;;;;;;14.77;8.80;;;3.60;99.90;;;;;;4987483;28;20276;-48
2020/12/19 03:00:13;;;;;;;19.53;10.60;;;3.60;99.90;;;;;;5001493;28;20374;-52
2020/12/19 03:02:38;;;;;;;14.80;9.67;;;3.60;99.90;;;;;;5004612;28;20574;-45
2020/12/19 03:05:04;;;;;;;18.10;10.27;;;3.60;99.90;;;;;;4979773;28;20275;-47
2020/12/19 03:07:29;;;;;;;16.73;10.10;;;3.60;99.90;;;;;;4994519;28;20173;-45
2020/12/19 03:09:55;;;;;;;17.90;10.63;;;3.60;99.90;;;;;;4996638;28;20185;-47
2020/12/19 03:12:20;;;;;;;14.73;11.00;;;3.60;99.90;;;;;;5001087;28;20891;-45
2020/12/19 03:14:46;;;;;;;16.13;10.33;;;3.60;99.90;;;;;;5000302;28;20244;-50
2020/12/19 03:17:11;;;;;;;17.10;10.70;;;3.60;99.90;;;;;;5001387;28;20796;-45
2020/12/19 03:19:36;;;;;;;14.43;10.13;;;3.60;99.90;;;;;;4986000;28;20193;-45
2020/12/19 03:22:02;;;;;;;17.93;10.50;;;3.60;99.90;;;;;;4991299;28;20193;-48
2020/12/19 03:24:27;;;;;;;19.67;11.50;;;3.60;99.90;;;;;;5000715;28;20280;-48
2020/12/19 03:26:53;;;;;;;16.33;11.47;;;3.60;99.90;;;;;;5004593;28;20173;-45
2020/12/19 03:29:18;;;;;;;15.50;11.33;;;3.60;99.90;;;;;;4995500;28;20301;-45
2020/12/19 03:31:44;;;;;;;17.10;11.00;;;3.60;99.90;;;;;;5004376;28;20192;-45
2020/12/19 03:34:09;;;;;;;19.23;11.37;;;3.60;99.90;;;;;;4990420;28;20199;-46
2020/12/19 03:36:35;;;;;;;16.83;11.13;;;3.60;99.90;;;;;;4988802;28;20201;-50
2020/12/19 03:39:01;;;;;;;15.97;11.43;;;3.60;99.90;;;;;;4991324;28;20280;-49
2020/12/19 03:41:26;;;;;;;18.57;11.47;;;3.60;99.90;;;;;;4999882;28;20287;-46
2020/12/19 03:43:52;;;;;;;15.97;10.93;;;3.60;99.90;;;;;;4998321;28;20658;-46
2020/12/19 03:46:17;;;;;;;21.00;12.10;;;3.60;99.90;;;;;;4993577;28;20199;-47
2020/12/19 03:48:43;;;;;;;19.40;11.23;;;3.60;99.90;;;;;;5004137;28;20177;-47
2020/12/19 03:51:09;;;;;;;20.27;12.40;;;3.70;99.90;;;;;;4986482;28;20196;-49
2020/12/19 03:53:35;;;;;;;25.40;12.00;;;3.60;99.90;;;;;;4991788;28;20183;-44
2020/12/19 03:56:00;;;;;;;20.47;11.90;;;3.60;99.90;;;;;;4983521;28;20268;-47
2020/12/19 03:58:25;;;;;;;22.00;11.97;;;3.60;99.90;;;;;;4981940;28;20904;-46
2020/12/19 04:00:51;;;;;;;17.80;12.33;;;3.60;99.90;;;;;;4986579;28;20208;-49
2020/12/19 04:03:16;;;;;;;19.27;13.07;;;3.60;99.90;;;;;;5000080;28;20165;-45
2020/12/19 04:05:42;;;;;;;18.67;12.17;;;3.60;99.90;;;;;;4989760;28;20836;-47
2020/12/19 04:08:08;;;;;;;18.73;12.37;;;3.60;99.90;;;;;;4993008;28;20227;-49
2020/12/19 04:10:33;;;;;;;20.90;12.70;;;3.60;99.90;;;;;;4983385;28;20181;-46
2020/12/19 04:12:58;;;;;;;19.63;11.50;;;3.60;99.90;;;;;;4983443;28;20186;-45
2020/12/19 04:15:24;;;;;;;19.47;12.27;;;3.60;99.90;;;;;;4980967;28;20200;-48
2020/12/19 04:17:52;;;;;;;24.07;13.30;;;3.60;99.90;;;;;;4994754;28;20220;-45
2020/12/19 04:20:18;;;;;;;19.70;12.00;;;3.60;99.90;;;;;;4998910;28;20173;-46
2020/12/19 04:22:44;;;;;;;21.80;13.13;;;3.60;99.90;;;;;;4980138;28;20196;-45
2020/12/19 04:25:10;;;;;;;26.00;14.00;;;3.60;99.90;;;;;;4992541;28;20700;-50
2020/12/19 04:27:36;;;;;;;21.67;12.53;;;3.60;99.90;;;;;;5002619;28;20188;-46
2020/12/19 04:30:04;;;;;;;20.20;12.53;;;3.60;99.90;;;;;;4998793;28;20274;-46
2020/12/19 04:32:30;;;;;;;18.47;11.90;;;3.50;99.90;;;;;;4990587;28;20530;-44
2020/12/19 04:34:55;;;;;;;19.97;12.13;;;3.50;99.90;;;;;;4982735;28;20679;-48
2020/12/19 04:37:21;;;;;;;23.77;13.33;;;3.60;99.90;;;;;;4967516;28;20193;-47
2020/12/19 04:39:47;;;;;;;21.83;12.47;;;3.60;99.90;;;;;;4991721;28;20185;-50
2020/12/19 04:42:15;;;;;;;20.53;12.27;;;3.60;99.90;;;;;;4995391;28;20287;-48
2020/12/19 04:44:41;;;;;;;19.27;12.50;;;3.60;99.90;;;;;;5002867;28;20263;-46
2020/12/19 04:47:07;;;;;;;18.00;12.80;;;3.60;99.90;;;;;;4998817;28;20176;-48
2020/12/19 04:49:35;;;;;;;22.37;13.47;;;3.50;99.90;;;;;;5000028;28;20870;-45
2020/12/19 04:52:01;;;;;;;23.53;13.57;;;3.50;99.90;;;;;;5002063;28;20189;-48
2020/12/19 04:54:28;;;;;;;22.10;13.37;;;3.60;99.90;;;;;;4979158;28;20363;-48
2020/12/19 04:56:57;;;;;;;21.37;13.77;;;3.60;99.90;;;;;;4991849;28;20185;-47
2020/12/19 04:59:23;;;;;;;23.60;13.07;;;3.50;99.90;;;;;;4980429;28;20208;-49
2020/12/19 05:01:49;;;;;;;24.67;12.53;;;3.60;99.90;;;;;;4989316;28;20747;-44
2020/12/19 05:04:14;;;;;;;20.33;13.37;;;3.60;99.90;;;;;;4985273;28;20291;-47
2020/12/19 05:06:40;;;;;;;23.73;12.70;;;3.50;99.90;;;;;;4998766;28;20311;-46
2020/12/19 05:09:07;;;;;;;20.67;13.37;;;3.50;99.90;;;;;;4992976;28;20173;-49
2020/12/19 05:11:32;;;;;;;22.63;13.67;;;3.60;99.90;;;;;;4987771;28;20825;-49
2020/12/19 05:13:58;;;;;;;23.80;14.00;;;3.60;99.90;;;;;;4988643;28;20284;-44
2020/12/19 05:16:23;;;;;;;23.97;13.33;;;3.60;99.90;;;;;;4978490;28;20170;-49
2020/12/19 05:18:49;;;;;;;24.83;12.83;;;3.60;99.90;;;;;;4985648;28;20188;-47
2020/12/19 05:21:15;;;;;;;22.77;13.80;;;3.60;99.90;;;;;;4993444;28;20930;-46
2020/12/19 05:23:42;;;;;;;20.33;13.20;;;3.60;99.90;;;;;;4995015;28;20208;-46
2020/12/19 05:26:11;;;;;;;24.43;13.87;;;3.60;99.90;;;;;;4985909;28;20680;-56
2020/12/19 05:28:39;;;;;;;24.80;13.87;;;3.60;99.90;;;;;;4994558;28;20197;-46
2020/12/19 05:31:05;;;;;;;26.63;13.80;;;3.70;99.90;;;;;;4999611;28;20664;-43
2020/12/19 05:33:35;;;;;;;23.90;13.60;;;3.70;99.90;;;;;;4996724;28;20197;-48
2020/12/19 05:36:05;;;;;;;23.07;13.40;;;3.60;99.90;;;;;;4997127;28;20185;-49
2020/12/19 05:38:36;;;;;;;20.27;13.47;;;3.60;99.90;;;;;;4998313;28;20173;-49
2020/12/19 05:41:01;;;;;;;21.53;12.20;;;3.70;99.90;;;;;;4980982;28;20277;-47
2020/12/19 05:43:27;;;;;;;22.13;12.83;;;3.70;99.90;;;;;;4990361;28;20259;-47
2020/12/19 05:45:53;;;;;;;23.30;13.40;;;3.70;99.90;;;;;;4983163;28;20198;-45
2020/12/19 05:48:18;;;;;;;23.53;13.63;;;3.70;99.90;;;;;;4979487;28;20169;-46
2020/12/19 05:50:44;;;;;;;21.30;11.90;;;3.70;99.90;;;;;;4987785;28;20648;-47
2020/12/19 05:53:10;;;;;;;23.00;13.10;;;3.70;99.90;;;;;;5001132;28;20256;-47
2020/12/19 05:55:36;;;;;;;26.40;13.57;;;3.70;99.90;;;;;;4989735;28;20782;-48
2020/12/19 05:58:05;;;;;;;23.57;12.77;;;3.70;99.90;;;;;;5000624;28;20189;-47
2020/12/19 06:00:32;;;;;;;25.87;14.30;;;3.70;99.90;;;;;;5001797;28;20176;-45
2020/12/19 06:03:01;;;;;;;25.63;14.63;;;3.70;99.90;;;;;;4996059;28;20581;-46
2020/12/19 06:05:28;;;;;;;23.87;13.63;;;3.70;99.90;;;;;;4983060;28;20216;-47
2020/12/19 06:07:54;;;;;;;25.03;13.77;;;3.80;99.90;;;;;;5001332;28;20266;-48
2020/12/19 06:10:20;;;;;;;21.13;13.90;;;3.70;99.90;;;;;;4985653;28;21022;-53
2020/12/19 06:13:13;;;;;;;23.70;14.07;;;3.80;99.90;;;;;;5005739;28;20596;-45
2020/12/19 06:15:45;;;;;;;22.60;13.63;;;3.80;99.90;;;;;;4997629;28;20309;-48
2020/12/19 06:18:54;;;;;;;25.17;13.67;;;3.80;99.90;;;;;;4993413;28;20193;-44
2020/12/19 06:21:20;;;;;;;21.87;12.10;;;3.80;99.90;;;;;;4983179;28;20775;-50
2020/12/19 06:23:46;;;;;;;21.93;12.27;;;3.80;99.90;;;;;;4999528;28;20653;-45
2020/12/19 06:26:13;;;;;;;23.60;13.33;;;3.80;99.90;;;;;;4987038;28;20886;-51
2020/12/19 06:28:41;;;;;;;21.07;12.93;;;3.80;99.90;;;;;;4991911;28;20197;-47
2020/12/19 06:31:17;;;;;;;23.17;13.67;;;3.80;99.90;;;;;;4982698;28;20637;-48
2020/12/19 06:33:46;;;;;;;22.43;13.13;;;3.80;99.90;;;;;;4991198;28;20181;-46
2020/12/19 06:36:29;;;;;;;22.33;13.13;;;3.80;99.90;;;;;;4987184;28;20181;-49
2020/12/19 06:39:07;;;;;;;21.83;12.80;;;3.80;99.90;;;;;;4993450;28;20192;-45
2020/12/19 06:41:54;;;;;;;21.60;12.43;;;3.80;99.90;;;;;;4985874;28;20685;-49
2020/12/19 06:44:32;;;;;;;20.87;12.80;;;3.80;99.90;;;;;;4994101;28;20915;-44
2020/12/19 06:47:00;;;;;;;20.17;12.23;;;3.80;99.90;;;;;;5004044;28;20172;-51
2020/12/19 06:49:29;;;;;;;19.03;11.60;;;3.70;99.90;;;;;;5003433;28;20906;-49
2020/12/19 06:52:13;;;;;;;18.10;12.13;;;3.70;99.90;;;;;;4996035;28;20200;-46
2020/12/19 06:54:43;;;;;;;20.40;12.43;;;3.70;99.90;;;;;;4986072;28;20208;-45
2020/12/19 06:57:26;;;;;;;21.50;12.30;;;3.70;99.90;;;;;;4972489;28;20209;-47
2020/12/19 06:59:52;;;;;;;20.97;12.27;;;3.80;99.90;;;;;;4993977;28;20181;-47
2020/12/19 07:02:22;;;;;;;19.43;12.57;;;3.70;99.90;;;;;;5001122;28;20259;-48
2020/12/19 07:04:49;;;;;;;23.57;12.70;;;3.70;99.90;;;;;;4995957;28;20205;-49
2020/12/19 07:07:21;;;;;;;18.57;11.63;;;3.70;99.90;;;;;;4994321;28;20817;-45
2020/12/19 07:10:01;;;;;;;20.83;12.57;;;3.70;99.90;;;;;;4991834;28;20185;-47
2020/12/19 07:12:35;;;;;;;22.43;12.90;;;3.70;99.90;;;;;;4980009;28;20213;-49
2020/12/19 07:15:02;;;;;;;22.03;12.60;;;3.70;99.90;;;;;;4989113;28;20239;-48
2020/12/19 07:17:28;;;;;;;21.77;13.47;;;3.70;99.90;;;;;;5001384;28;20622;-46
2020/12/19 07:19:58;;;;;;;18.53;11.73;;;3.70;99.90;;;;;;4995905;28;20169;-45
2020/12/19 07:22:24;;;;;;;19.47;12.37;;;3.70;99.90;;;;;;4993349;28;20212;-47
2020/12/19 07:24:53;;;;;;;21.07;11.33;;;3.70;99.90;;;;;;4995923;28;20231;-50
2020/12/19 07:27:23;;;;;;;25.53;12.33;;;3.80;99.90;;;;;;5004900;28;20183;-49
2020/12/19 07:29:49;;;;;;;19.77;12.83;;;3.70;99.90;;;;;;4978902;28;20186;-48
2020/12/19 07:32:15;;;;;;;23.47;12.67;;;3.80;99.90;;;;;;4992057;28;20186;-45
2020/12/19 07:34:41;;;;;;;23.30;12.20;;;3.80;99.90;;;;;;4981051;28;20201;-44
2020/12/19 07:37:07;;;;;;;18.73;11.73;;;3.80;99.90;;;;;;4985628;28;20532;-45
2020/12/19 07:39:33;;;;;;;20.50;12.90;;;3.80;99.90;;;;;;4990261;28;20736;-49
2020/12/19 07:42:04;;;;;;;20.60;12.63;;;3.80;99.90;;;;;;4980580;28;20216;-45
2020/12/19 07:44:31;;;;;;;26.60;13.10;;;3.80;99.90;;;;;;4974766;28;20222;-49
2020/12/19 07:46:59;;;;;;;21.03;12.43;;;3.80;99.90;;;;;;4984661;28;20505;-48
2020/12/19 07:49:27;;;;;;;19.47;11.97;;;3.80;99.90;;;;;;5001406;28;20173;-44
2020/12/19 07:52:08;;;;;;;17.97;11.53;;;3.80;99.90;;;;;;4994483;28;20708;-46
2020/12/19 07:54:34;;;;;;;22.73;13.93;;;3.80;99.90;;;;;;4982023;28;20646;-50
2020/12/19 07:57:00;;;;;;;24.73;12.90;;;3.80;99.90;;;;;;4991552;28;20277;-46
2020/12/19 07:59:27;;;;;;;23.53;12.70;;;3.80;99.90;;;;;;4998639;28;20903;-49
2020/12/19 08:01:54;;;;;;;21.03;12.07;;;3.90;99.90;;;;;;4981850;28;20217;-47
2020/12/19 08:04:19;;;;;;;21.50;12.93;;;3.80;99.90;;;;;;4991971;28;20204;-49
2020/12/19 08:06:45;;;;;;;19.83;12.23;;;3.90;99.90;;;;;;4999694;28;20181;-49
2020/12/19 08:09:11;;;;;;;22.40;13.30;;;3.90;99.90;;;;;;4999692;28;20211;-50
2020/12/19 08:11:48;;;;;;;19.67;12.47;;;3.90;99.90;;;;;;4993775;28;20271;-50
2020/12/19 08:14:15;;;;;;;25.03;13.43;;;3.90;99.90;;;;;;4992088;28;20213;-46
2020/12/19 08:16:41;;;;;;;19.00;12.00;;;3.90;99.90;;;;;;4965856;28;20193;-48
2020/12/19 08:19:08;;;;;;;18.83;12.77;;;3.90;99.90;;;;;;4996590;28;20313;-44
2020/12/19 08:21:36;;;;;;;24.93;12.47;;;3.90;99.90;;;;;;4984244;28;20209;-49
2020/12/19 08:24:02;;;;;;;18.67;12.23;;;4.00;99.90;;;;;;4996481;28;20212;-44
2020/12/19 08:26:27;;;;;;;22.23;13.17;;;4.00;99.90;;;;;;5001935;28;20181;-50
2020/12/19 08:29:04;;;;;;;20.87;13.13;;;4.10;99.90;;;;;;4996502;28;20239;-45
2020/12/19 08:31:33;;;;;;;21.47;12.07;;;4.10;99.90;;;;;;4981342;28;20664;-51
2020/12/19 08:33:59;;;;;;;20.97;13.07;;;4.10;99.90;;;;;;4995618;28;20285;-43
2020/12/19 08:36:25;;;;;;;20.80;12.30;;;4.10;99.90;;;;;;5002748;28;20260;-47
2020/12/19 08:38:50;;;;;;;22.40;12.07;;;4.20;99.90;;;;;;4995629;28;20287;-46
2020/12/19 08:41:20;;;;;;;17.50;11.50;;;4.20;99.90;;;;;;5003528;28;20572;-48
2020/12/19 08:43:45;;;;;;;21.33;13.60;;;4.20;99.90;;;;;;4994644;28;20279;-43
2020/12/19 08:46:14;;;;;;;20.67;12.90;;;4.30;99.90;;;;;;5003647;28;20251;-45
2020/12/19 08:48:41;;;;;;;22.03;12.23;;;4.30;99.90;;;;;;4971371;28;20204;-46
2020/12/19 08:51:09;;;;;;;18.17;12.47;;;4.30;99.90;;;;;;4997628;28;20224;-48
2020/12/19 08:53:35;;;;;;;19.93;11.77;;;4.40;99.90;;;;;;4997685;28;20247;-46
2020/12/19 08:56:13;;;;;;;16.30;11.83;;;4.40;99.90;;;;;;4999695;28;20201;-44
2020/12/19 08:58:39;;;;;;;21.67;12.27;;;4.40;99.90;;;;;;4995300;28;20208;-51
2020/12/19 09:01:14;;;;;;;23.67;12.43;;;4.50;99.90;;;;;;5002646;28;20263;-44
2020/12/19 09:03:39;;;;;;;23.53;12.67;;;4.50;99.90;;;;;;4973712;28;20192;-51
2020/12/19 09:06:07;;;;;;;17.00;11.17;;;4.50;99.90;;;;;;5001975;28;20204;-46
2020/12/19 09:08:37;;;;;;;18.87;11.53;;;4.60;99.90;;;;;;4998992;28;20213;-49
2020/12/19 09:11:09;;;;;;;18.33;12.20;;;4.60;99.90;;;;;;5001471;28;20200;-46
2020/12/19 09:13:36;;;;;;;21.63;12.63;;;4.60;99.90;;;;;;4995711;28;20212;-51
2020/12/19 09:16:09;;;;;;;21.07;12.73;;;4.70;99.90;;;;;;5002056;28;20207;-45
2020/12/19 09:18:36;;;;;;;21.00;12.13;;;4.80;99.90;;;;;;4980247;28;20991;-50
2020/12/19 09:21:05;;;;;;;20.10;12.27;;;4.80;99.90;;;;;;4987503;28;20224;-45
2020/12/19 09:23:31;;;;;;;19.60;12.80;;;4.90;99.90;;;;;;4986566;28;20189;-49
2020/12/19 09:25:59;;;;;;;20.37;11.70;;;4.90;99.90;;;;;;4992692;28;20205;-45
2020/12/19 09:28:25;;;;;;;21.10;12.30;;;4.90;99.90;;;;;;4998347;28;20204;-48
2020/12/19 09:30:52;;;;;;;19.53;11.70;;;5.00;99.90;;;;;;4996837;28;20189;-44
2020/12/19 09:33:19;;;;;;;18.50;11.70;;;5.10;99.90;;;;;;4995891;28;20192;-52
2020/12/19 09:35:45;;;;;;;19.13;11.63;;;5.20;99.90;;;;;;4977232;28;20213;-47
2020/12/19 09:38:11;;;;;;;18.53;11.73;;;5.20;99.90;;;;;;4996214;28;20228;-46
2020/12/19 09:40:36;;;;;;;22.70;12.93;;;5.30;99.90;;;;;;4985878;28;20197;-51
2020/12/19 09:43:02;;;;;;;16.07;11.10;;;5.40;99.90;;;;;;4995395;28;20715;-42
2020/12/19 09:45:28;;;;;;;19.90;11.70;;;5.40;99.90;;;;;;4996226;28;20200;-52
2020/12/19 09:47:55;;;;;;;19.07;11.30;;;5.50;99.90;;;;;;5002199;28;20177;-47
2020/12/19 09:50:21;;;;;;;17.97;11.27;;;5.50;99.90;;;;;;4977756;28;20662;-50
2020/12/19 09:52:47;;;;;;;17.70;11.43;;;5.50;99.90;;;;;;4994951;28;20193;-50
2020/12/19 09:55:13;;;;;;;16.73;11.27;;;5.50;99.90;;;;;;4995946;28;20205;-47
2020/12/19 09:57:39;;;;;;;19.53;12.07;;;5.60;99.90;;;;;;4994860;28;20249;-44
2020/12/19 10:00:06;;;;;;;18.20;11.83;;;5.60;99.90;;;;;;4993107;28;20280;-46
2020/12/19 10:02:32;;;;;;;15.33;11.63;;;5.70;99.90;;;;;;4991274;28;20205;-50
2020/12/19 10:04:57;;;;;;;19.70;11.00;;;5.90;99.90;;;;;;4973951;28;20214;-48
2020/12/19 10:07:23;;;;;;;19.00;10.03;;;6.20;99.90;;;;;;4996840;28;20576;-45
2020/12/19 10:09:48;;;;;;;15.00;10.07;;;6.40;99.90;;;;;;4984362;28;20249;-46
2020/12/19 10:12:14;;;;;;;16.57;9.83;;;6.50;99.90;;;;;;4997214;28;20220;-44
2020/12/19 10:14:39;;;;;;;12.17;9.40;;;6.50;99.90;;;;;;4996488;28;20207;-45
2020/12/19 10:17:05;;;;;;;15.33;9.70;;;6.40;99.90;;;;;;5005529;28;20599;-45
2020/12/19 10:19:30;;;;;;;17.77;11.63;;;6.30;99.90;;;;;;5003096;28;20212;-50
2020/12/19 10:21:56;;;;;;;15.83;10.90;;;6.30;99.90;;;;;;4979040;28;20271;-47
2020/12/19 10:24:22;;;;;;;15.30;10.53;;;6.30;99.90;;;;;;4987256;28;20197;-47
2020/12/19 10:26:48;;;;;;;15.87;10.87;;;6.30;99.90;;;;;;4987821;28;20288;-46
2020/12/19 10:29:14;;;;;;;15.27;10.10;;;6.20;99.90;;;;;;4994490;28;20262;-47
2020/12/19 10:31:39;;;;;;;17.97;10.97;;;6.20;99.90;;;;;;4997514;28;20192;-46
2020/12/19 10:34:05;;;;;;;14.17;10.77;;;6.20;99.90;;;;;;4996539;28;20209;-46
2020/12/19 10:36:31;;;;;;;15.03;10.17;;;6.20;99.90;;;;;;4978129;28;20666;-49
2020/12/19 10:38:58;;;;;;;17.17;9.77;;;6.30;99.90;;;;;;4985865;28;20190;-45
2020/12/19 10:41:23;;;;;;;14.30;10.00;;;6.40;99.90;;;;;;4996824;28;20205;-47
2020/12/19 10:43:49;;;;;;;14.00;10.07;;;6.40;99.90;;;;;;4994405;28;20179;-46
2020/12/19 10:46:24;;;;;;;16.80;9.63;;;6.40;99.90;;;;;;4997140;28;20197;-43
2020/12/19 10:48:49;;;;;;;16.23;10.47;;;6.40;99.90;;;;;;5001044;28;20180;-45
2020/12/19 10:51:15;;;;;;;12.97;9.63;;;6.30;99.90;;;;;;5002581;28;20248;-49
2020/12/19 10:53:42;;;;;;;16.83;9.97;;;6.40;99.90;;;;;;4977592;28;20195;-51
2020/12/19 10:56:07;;;;;;;13.70;9.10;;;6.40;99.90;;;;;;4993391;28;20184;-45
2020/12/19 10:58:33;;;;;;;13.43;9.63;;;6.40;99.90;;;;;;4985485;28;20681;-42
2020/12/19 11:00:58;;;;;;;15.10;10.20;;;6.40;99.90;;;;;;4989461;28;20683;-45
2020/12/19 11:03:24;;;;;;;14.97;10.53;;;6.50;99.90;;;;;;4999746;28;20185;-43
2020/12/19 11:05:49;;;;;;;14.93;10.60;;;6.50;99.90;;;;;;4991712;28;20197;-43
2020/12/19 11:08:15;;;;;;;17.30;9.70;;;6.50;99.90;;;;;;4967837;28;20196;-44
2020/12/19 11:10:42;;;;;;;13.87;10.03;;;6.50;99.90;;;;;;4993804;28;20555;-51
2020/12/19 11:13:08;;;;;;;13.67;9.90;;;6.50;99.90;;;;;;4977138;28;20191;-49
2020/12/19 11:15:33;;;;;;;15.80;10.17;;;6.50;99.90;;;;;;4993246;28;20197;-42
2020/12/19 11:17:59;;;;;;;20.60;10.70;;;6.50;99.90;;;;;;4989681;28;20268;-46
2020/12/19 11:20:25;;;;;;;13.50;9.57;;;6.50;99.90;;;;;;5002217;28;20188;-43
2020/12/19 11:22:50;;;;;;;14.10;10.13;;;6.60;99.90;;;;;;4991206;28;20255;-43
2020/12/19 11:25:16;;;;;;;15.13;10.27;;;6.60;99.90;;;;;;5002329;28;20258;-46
2020/12/19 11:27:42;;;;;;;12.63;9.57;;;6.60;99.90;;;;;;5004598;28;20177;-43
2020/12/19 11:30:07;;;;;;;17.80;10.73;;;6.70;99.90;;;;;;4984655;28;20223;-43
2020/12/19 11:32:33;;;;;;;12.63;9.77;;;6.70;99.90;;;;;;4986905;28;20193;-46
2020/12/19 11:34:59;;;;;;;16.80;10.80;;;6.70;99.90;;;;;;5001742;28;20205;-43
2020/12/19 11:37:25;;;;;;;13.33;10.03;;;6.80;99.90;;;;;;5003090;28;20626;-46
2020/12/19 11:39:51;;;;;;;16.40;9.90;;;6.80;99.90;;;;;;4984396;28;20209;-42
2020/12/19 11:42:16;;;;;;;13.23;10.90;;;6.80;99.90;;;;;;4982601;28;20193;-45
2020/12/19 11:44:42;;;;;;;16.27;9.00;;;6.80;99.90;;;;;;4984609;28;20265;-42
2020/12/19 11:47:07;;;;;;;16.20;10.10;;;6.90;99.90;;;;;;4982465;28;20196;-43
2020/12/19 11:49:33;;;;;;;11.30;9.20;;;6.90;99.90;;;;;;5004956;28;20156;-44
2020/12/19 11:51:59;;;;;;;13.53;10.17;;;6.90;99.90;;;;;;5000289;28;20181;-45
2020/12/19 11:54:25;;;;;;;14.90;9.57;;;6.90;99.90;;;;;;4982514;28;20693;-43
2020/12/19 11:56:51;;;;;;;14.87;9.70;;;7.00;99.90;;;;;;5002664;28;20300;-44
2020/12/19 11:59:16;;;;;;;15.00;9.87;;;7.00;99.90;;;;;;4991986;28;21976;-43
2020/12/19 12:01:42;;;;;;;12.60;9.60;;;7.00;99.90;;;;;;4986387;28;20220;-44
2020/12/19 12:04:07;;;;;;;18.30;10.10;;;7.00;99.90;;;;;;4985579;28;20859;-49
2020/12/19 12:06:33;;;;;;;13.37;9.80;;;7.10;99.90;;;;;;4993107;28;20272;-46
2020/12/19 12:09:00;;;;;;;13.20;9.50;;;7.10;99.90;;;;;;4985358;28;20547;-44
2020/12/19 12:11:30;;;;;;;13.47;9.50;;;7.20;99.90;;;;;;4988711;28;20204;-44
2020/12/19 12:13:57;;;;;;;15.37;10.10;;;7.20;99.90;;;;;;4997295;28;20271;-44
2020/12/19 12:16:26;;;;;;;14.77;9.77;;;7.30;99.90;;;;;;4981836;28;20197;-44
2020/12/19 12:18:52;;;;;;;13.73;10.10;;;7.30;99.90;;;;;;4992641;28;20236;-45
2020/12/19 12:21:18;;;;;;;13.40;8.83;;;7.30;99.90;;;;;;4991901;28;20965;-49
2020/12/19 12:23:44;;;;;;;14.07;9.40;;;7.40;99.90;;;;;;4982436;28;20200;-45
2020/12/19 12:26:11;;;;;;;14.00;9.77;;;7.40;99.90;;;;;;4973770;28;20225;-46
2020/12/19 12:28:36;;;;;;;14.57;10.27;;;7.40;99.90;;;;;;4983367;28;20933;-47
2020/12/19 12:31:02;;;;;;;13.73;9.33;;;7.50;99.90;;;;;;4988364;28;20192;-47
2020/12/19 12:33:27;;;;;;;14.90;9.60;;;7.50;99.90;;;;;;4983121;28;20183;-49
2020/12/19 12:35:53;;;;;;;14.23;9.17;;;7.50;99.90;;;;;;4999921;28;20215;-47
2020/12/19 12:38:18;;;;;;;12.70;9.20;;;7.50;99.90;;;;;;4984341;28;20181;-46
2020/12/19 12:40:44;;;;;;;13.03;9.23;;;7.60;99.90;;;;;;4989328;28;20196;-45